Time;durP1;ratioP1;P1;durP2;ratioP2;P2;SDS_P1;SDS_P2;PMS_P1;PMS_P2;Temp;Humidity;BMP_temperature;BMP_pressure;BME280_temperature;BME280_humidity;BME280_pressure;Samples;Min_cycle;Max_cycle;Signal;HPM_P1;HPM_P2
2022/04/19 00:01:54;;;;;;;6.78;5.40;;;10.50;62.60;;;;;;2095985;68;20242;-72
2022/04/19 00:04:36;;;;;;;8.32;5.75;;;10.50;62.80;;;;;;2095922;68;20829;-73
2022/04/19 00:07:18;;;;;;;8.23;6.15;;;10.40;63.20;;;;;;2100984;67;20330;-72
2022/04/19 00:10:01;;;;;;;6.95;5.85;;;10.40;63.40;;;;;;2097845;67;20707;-74
2022/04/19 00:12:45;;;;;;;7.75;5.75;;;10.40;63.80;;;;;;2110097;67;20272;-73
2022/04/19 00:15:33;;;;;;;9.80;5.80;;;10.40;63.90;;;;;;2110701;67;20174;-73
2022/04/19 00:18:16;;;;;;;7.07;5.80;;;10.40;64.00;;;;;;2120072;67;20827;-73
2022/04/19 00:20:59;;;;;;;8.13;6.03;;;10.30;64.00;;;;;;2127937;67;20183;-73
2022/04/19 00:23:46;;;;;;;8.98;6.47;;;10.30;64.40;;;;;;2134537;67;20546;-73
2022/04/19 00:26:31;;;;;;;8.10;5.88;;;10.30;64.70;;;;;;2128008;67;20167;-73
2022/04/19 00:29:14;;;;;;;9.30;6.63;;;10.10;64.60;;;;;;2113090;67;20511;-74
2022/04/19 00:31:57;;;;;;;7.15;6.43;;;10.10;65.20;;;;;;2116959;67;20645;-73
2022/04/19 00:34:43;;;;;;;7.63;5.88;;;10.00;65.20;;;;;;2125426;67;20172;-74
2022/04/19 00:37:27;;;;;;;9.27;6.15;;;10.00;65.50;;;;;;2123531;67;20700;-73
2022/04/19 00:40:12;;;;;;;8.32;6.35;;;10.00;66.00;;;;;;2128491;67;20381;-72
2022/04/19 00:42:54;;;;;;;8.80;6.55;;;9.90;66.40;;;;;;2137342;67;20247;-74
2022/04/19 00:45:37;;;;;;;8.50;6.20;;;9.90;66.60;;;;;;2124470;67;20254;-73
2022/04/19 00:48:21;;;;;;;8.57;6.00;;;9.90;67.10;;;;;;2134827;67;20465;-74
2022/04/19 00:51:05;;;;;;;9.45;7.13;;;9.80;67.30;;;;;;2127555;66;20871;-72
2022/04/19 00:53:49;;;;;;;8.68;5.97;;;9.80;67.50;;;;;;2126042;67;20396;-73
2022/04/19 00:56:35;;;;;;;9.65;6.43;;;9.80;67.90;;;;;;2132598;67;20364;-73
2022/04/19 00:59:21;;;;;;;9.00;6.63;;;9.70;68.00;;;;;;2125778;67;20325;-74
2022/04/19 01:02:03;;;;;;;10.38;6.93;;;9.70;68.40;;;;;;2125437;67;20682;-73
2022/04/19 01:04:45;;;;;;;8.32;6.28;;;9.60;69.00;;;;;;2114451;67;20286;-72
2022/04/19 01:07:28;;;;;;;9.93;6.63;;;9.60;69.60;;;;;;2104365;67;20174;-74
2022/04/19 01:10:10;;;;;;;9.93;6.78;;;9.60;70.00;;;;;;2111337;67;20229;-74
2022/04/19 01:15:53;;;;;;;9.05;5.97;;;9.50;71.10;;;;;;2103797;67;20309;-73
2022/04/19 01:18:35;;;;;;;7.85;6.00;;;9.50;71.30;;;;;;2094175;67;20322;-73
2022/04/19 01:21:17;;;;;;;9.02;6.25;;;9.50;71.50;;;;;;2122747;67;20784;-74
2022/04/19 01:24:03;;;;;;;8.95;6.25;;;9.40;71.90;;;;;;2125659;67;20243;-73
2022/04/19 01:26:45;;;;;;;9.02;6.40;;;9.40;72.20;;;;;;2131307;67;20405;-73
2022/04/19 01:29:27;;;;;;;8.57;6.30;;;9.30;72.60;;;;;;2130794;67;20593;-73
2022/04/19 01:32:10;;;;;;;8.93;5.75;;;9.30;72.70;;;;;;2132424;67;20179;-73
2022/04/19 01:35:17;;;;;;;7.97;6.35;;;9.30;72.80;;;;;;2137173;67;20187;-73
2022/04/19 01:37:59;;;;;;;9.10;6.30;;;9.30;73.00;;;;;;2128867;66;20310;-74
2022/04/19 01:40:42;;;;;;;9.00;6.25;;;9.30;73.30;;;;;;2136399;67;20230;-73
2022/04/19 01:43:26;;;;;;;10.05;6.97;;;9.20;73.70;;;;;;2137576;66;20770;-74
2022/04/19 01:46:11;;;;;;;8.90;7.57;;;9.60;74.30;;;;;;2131192;67;20220;-72
2022/04/19 01:48:57;;;;;;;11.23;7.38;;;9.20;74.20;;;;;;2135742;67;20344;-73
2022/04/19 01:51:42;;;;;;;9.90;6.97;;;9.10;74.80;;;;;;2141678;66;20486;-74
2022/04/19 01:54:26;;;;;;;8.10;6.45;;;9.10;75.20;;;;;;2132335;67;20175;-73
2022/04/19 01:57:08;;;;;;;11.23;7.22;;;9.10;75.80;;;;;;2136500;66;20267;-73
2022/04/19 01:59:50;;;;;;;10.32;6.65;;;9.00;76.00;;;;;;2123222;67;20172;-73
2022/04/19 02:02:32;;;;;;;9.10;6.60;;;9.00;76.60;;;;;;2133453;67;20243;-73
2022/04/19 02:05:15;;;;;;;8.45;6.50;;;8.90;77.30;;;;;;2139142;67;20187;-74
2022/04/19 02:07:58;;;;;;;8.95;7.30;;;8.90;78.00;;;;;;2133290;67;20222;-74
2022/04/19 02:10:42;;;;;;;9.25;6.40;;;9.10;78.50;;;;;;2131918;67;20466;-73
2022/04/19 02:13:27;;;;;;;8.23;6.32;;;8.80;78.80;;;;;;2138150;66;20577;-73
2022/04/19 02:16:09;;;;;;;9.63;6.72;;;8.80;79.70;;;;;;2125109;67;20360;-73
2022/04/19 02:18:52;;;;;;;8.43;6.82;;;9.00;80.50;;;;;;2127119;67;20247;-74
2022/04/19 02:21:35;;;;;;;8.90;6.57;;;9.20;81.30;;;;;;2148571;66;20372;-74
2022/04/19 02:24:20;;;;;;;10.52;6.18;;;8.70;81.40;;;;;;2156777;66;20222;-73
2022/04/19 02:27:03;;;;;;;9.13;6.93;;;8.70;82.00;;;;;;2154835;66;20615;-73
2022/04/19 02:29:45;;;;;;;9.25;6.72;;;8.70;82.80;;;;;;2153283;66;20225;-72
2022/04/19 02:32:28;;;;;;;8.18;6.35;;;8.70;83.20;;;;;;2152573;66;20224;-73
2022/04/19 02:35:17;;;;;;;8.88;6.57;;;8.70;84.20;;;;;;2141479;66;20181;-72
2022/04/19 02:37:59;;;;;;;11.27;6.93;;;8.70;84.10;;;;;;2152738;66;20230;-74
2022/04/19 02:40:44;;;;;;;9.52;6.20;;;8.60;84.90;;;;;;2136741;66;20211;-73
2022/04/19 02:43:26;;;;;;;10.52;6.82;;;8.50;85.30;;;;;;2146212;66;20265;-74
2022/04/19 02:46:09;;;;;;;8.85;6.82;;;8.60;85.60;;;;;;2146899;66;20166;-73
2022/04/19 02:48:52;;;;;;;9.10;7.22;;;8.60;86.20;;;;;;2149121;66;20263;-72
2022/04/19 02:51:35;;;;;;;9.40;7.57;;;8.60;86.80;;;;;;2142894;66;21192;-72
2022/04/19 02:54:20;;;;;;;9.35;6.97;;;8.50;87.60;;;;;;2141319;66;20175;-72
2022/04/19 02:57:03;;;;;;;10.13;7.00;;;8.50;87.50;;;;;;2135755;67;20211;-73
2022/04/19 02:59:45;;;;;;;10.25;6.38;;;8.50;88.20;;;;;;2128612;67;20823;-72
2022/04/19 03:02:27;;;;;;;8.90;6.95;;;8.50;88.30;;;;;;2126754;67;20365;-72
2022/04/19 03:05:12;;;;;;;8.60;6.60;;;8.50;88.90;;;;;;2122262;67;20232;-72
2022/04/19 03:07:58;;;;;;;9.70;6.40;;;8.40;89.30;;;;;;2125638;67;20321;-72
2022/04/19 03:10:44;;;;;;;11.52;7.97;;;8.30;89.60;;;;;;2114135;67;20654;-73
2022/04/19 03:13:28;;;;;;;9.07;6.80;;;8.30;89.90;;;;;;2099308;67;20877;-73
2022/04/19 03:16:13;;;;;;;10.82;6.93;;;8.30;90.20;;;;;;2098981;67;20182;-73
2022/04/19 03:18:54;;;;;;;10.65;6.53;;;8.30;90.30;;;;;;2103764;67;20365;-73
2022/04/19 03:21:36;;;;;;;10.05;7.03;;;8.20;90.50;;;;;;2103181;67;20323;-73
2022/04/19 03:30:18;;;;;;;10.18;6.78;;;8.10;91.40;;;;;;2117801;67;20236;-73
2022/04/19 03:33:00;;;;;;;7.72;5.88;;;8.10;91.50;;;;;;2110038;67;20198;-73
2022/04/19 03:35:43;;;;;;;9.85;6.78;;;8.10;91.60;;;;;;2125735;67;20260;-73
2022/04/19 03:38:34;;;;;;;9.10;6.63;;;8.10;91.90;;;;;;2132890;67;21004;-73
2022/04/19 03:41:19;;;;;;;7.30;5.80;;;8.00;92.00;;;;;;2130327;67;20298;-73
2022/04/19 03:44:07;;;;;;;10.10;6.50;;;8.00;92.10;;;;;;2121300;67;20336;-73
2022/04/19 03:47:07;;;;;;;7.53;6.18;;;7.90;92.30;;;;;;2127530;67;20821;-73
2022/04/19 03:49:51;;;;;;;9.35;6.90;;;7.90;92.50;;;;;;2132739;67;20324;-74
2022/04/19 03:52:36;;;;;;;10.10;6.55;;;7.80;92.70;;;;;;2120527;67;20268;-74
2022/04/19 03:55:18;;;;;;;9.38;6.53;;;7.80;92.90;;;;;;2120102;67;20267;-73
2022/04/19 03:58:03;;;;;;;11.32;7.15;;;7.70;93.10;;;;;;2129197;67;20336;-72
2022/04/19 04:00:49;;;;;;;8.70;6.60;;;7.70;93.30;;;;;;2128787;67;20308;-73
2022/04/19 04:03:34;;;;;;;7.93;6.00;;;7.70;93.70;;;;;;2133798;67;20709;-73
2022/04/19 04:06:20;;;;;;;8.75;6.38;;;7.60;93.90;;;;;;2133739;67;20320;-73
2022/04/19 04:09:03;;;;;;;9.93;7.15;;;7.60;94.10;;;;;;2140468;67;20400;-74
2022/04/19 04:11:45;;;;;;;12.05;7.40;;;7.60;94.40;;;;;;2135276;67;20328;-72
2022/04/19 04:14:27;;;;;;;9.10;6.57;;;7.50;94.60;;;;;;2139075;67;20279;-73
2022/04/19 04:17:10;;;;;;;12.07;6.78;;;7.50;94.70;;;;;;2128961;67;20234;-72
2022/04/19 04:19:54;;;;;;;10.07;7.40;;;7.50;94.90;;;;;;2121458;67;20185;-74
2022/04/19 04:22:36;;;;;;;11.63;7.40;;;7.40;95.00;;;;;;2124269;67;20212;-74
2022/04/19 04:25:19;;;;;;;11.38;7.53;;;7.40;95.30;;;;;;2113733;67;20717;-74
2022/04/19 04:28:01;;;;;;;10.38;6.75;;;7.40;95.50;;;;;;2115093;67;21501;-72
2022/04/19 04:30:47;;;;;;;10.60;6.90;;;7.40;95.70;;;;;;2124143;67;20297;-72
2022/04/19 04:33:32;;;;;;;9.85;7.43;;;7.50;95.90;;;;;;2128003;67;20250;-73
2022/04/19 04:36:14;;;;;;;11.88;7.10;;;7.40;96.10;;;;;;2149286;66;20709;-73
2022/04/19 04:38:56;;;;;;;10.32;6.30;;;7.30;96.20;;;;;;2161308;66;20645;-74
2022/04/19 04:41:39;;;;;;;10.43;7.50;;;7.30;96.50;;;;;;2152444;66;20421;-73
2022/04/19 04:44:29;;;;;;;11.35;7.85;;;7.30;96.70;;;;;;2140421;67;20281;-72
2022/04/19 04:50:14;;;;;;;9.65;6.70;;;7.30;97.00;;;;;;2121466;67;20539;-73
2022/04/19 04:52:56;;;;;;;12.90;7.65;;;7.30;97.10;;;;;;2130507;67;20239;-72
2022/04/19 04:55:38;;;;;;;15.60;7.82;;;7.30;97.40;;;;;;2117197;67;20994;-73
2022/04/19 04:58:22;;;;;;;11.98;7.45;;;7.30;97.60;;;;;;2132389;67;20364;-72
2022/04/19 05:01:04;;;;;;;9.52;7.03;;;7.30;97.60;;;;;;2146177;66;20199;-74
2022/04/19 05:03:46;;;;;;;11.20;7.13;;;7.30;97.80;;;;;;2149927;66;20206;-71
2022/04/19 05:06:30;;;;;;;10.50;6.93;;;7.40;97.90;;;;;;2162501;66;20199;-73
2022/04/19 05:09:14;;;;;;;11.82;7.78;;;7.40;98.00;;;;;;2154114;66;20286;-72
2022/04/19 05:11:58;;;;;;;10.85;7.85;;;7.50;98.10;;;;;;2146172;66;20258;-73
2022/04/19 05:14:42;;;;;;;11.55;7.40;;;7.40;98.30;;;;;;2147686;66;20812;-72
2022/04/19 05:17:24;;;;;;;12.40;7.65;;;7.40;98.20;;;;;;2121275;67;20329;-72
2022/04/19 05:20:09;;;;;;;12.82;8.15;;;7.40;98.40;;;;;;2140879;66;20233;-72
2022/04/19 05:22:51;;;;;;;12.23;7.45;;;7.50;98.50;;;;;;2135806;66;20967;-73
2022/04/19 05:25:33;;;;;;;9.02;7.22;;;7.50;98.50;;;;;;2147093;66;20335;-73
2022/04/19 05:28:15;;;;;;;10.68;7.40;;;7.50;98.70;;;;;;2139696;66;20697;-72
2022/04/19 05:30:57;;;;;;;9.90;7.65;;;7.50;98.80;;;;;;2137135;66;20292;-73
2022/04/19 05:33:42;;;;;;;13.23;8.38;;;7.60;98.80;;;;;;2138812;66;20222;-72
2022/04/19 05:36:27;;;;;;;12.68;7.55;;;7.70;99.00;;;;;;2117195;67;20243;-72
2022/04/19 05:39:11;;;;;;;10.80;8.07;;;7.70;99.10;;;;;;2109894;67;20264;-71
2022/04/19 05:41:54;;;;;;;11.25;7.72;;;7.70;99.10;;;;;;2125394;67;20257;-73
2022/04/19 05:44:37;;;;;;;10.25;7.50;;;7.80;99.10;;;;;;2113848;67;20288;-73
2022/04/19 05:47:19;;;;;;;12.23;7.88;;;7.80;99.00;;;;;;2127608;67;20772;-73
2022/04/19 05:50:01;;;;;;;11.13;7.32;;;7.90;99.30;;;;;;2118133;67;20590;-73
2022/04/19 05:52:47;;;;;;;11.48;6.85;;;8.00;99.10;;;;;;2118293;67;20346;-73
2022/04/19 05:55:32;;;;;;;12.30;7.50;;;8.00;99.10;;;;;;2137347;67;20820;-73
2022/04/19 05:58:19;;;;;;;11.73;7.38;;;8.10;99.00;;;;;;2137857;66;20416;-74
2022/04/19 06:01:06;;;;;;;10.73;6.97;;;8.20;99.00;;;;;;2129362;67;20329;-73
2022/04/19 06:06:52;;;;;;;10.80;7.32;;;8.20;99.00;;;;;;2132654;66;20838;-73
2022/04/19 06:09:37;;;;;;;12.45;7.63;;;8.30;99.10;;;;;;2132921;67;20195;-73
2022/04/19 06:12:21;;;;;;;12.40;8.00;;;8.30;99.00;;;;;;2125589;67;20212;-72
2022/04/19 06:15:05;;;;;;;10.13;6.50;;;8.40;98.80;;;;;;2140615;66;20202;-73
2022/04/19 06:17:47;;;;;;;10.85;7.07;;;8.50;98.80;;;;;;2142614;66;20204;-75
2022/04/19 06:20:29;;;;;;;12.60;7.63;;;8.50;98.70;;;;;;2128242;67;20595;-72
2022/04/19 06:23:12;;;;;;;11.10;7.50;;;8.60;98.60;;;;;;2136407;66;20326;-72
2022/04/19 06:25:57;;;;;;;12.07;8.30;;;8.70;98.60;;;;;;2141216;66;20267;-74
2022/04/19 06:28:40;;;;;;;8.77;6.45;;;8.70;98.50;;;;;;2124360;67;20262;-73
2022/04/19 06:31:22;;;;;;;9.43;6.80;;;8.70;98.50;;;;;;2149570;66;20251;-73
2022/04/19 06:34:04;;;;;;;12.27;7.53;;;8.90;98.40;;;;;;2161547;66;20235;-73
2022/04/19 06:36:46;;;;;;;9.73;7.20;;;8.90;98.50;;;;;;2158271;65;20235;-73
2022/04/19 06:39:28;;;;;;;11.43;7.95;;;9.00;98.20;;;;;;2139339;66;20215;-73
2022/04/19 06:42:11;;;;;;;11.80;7.88;;;9.10;98.10;;;;;;2129246;66;20404;-73
2022/04/19 06:44:56;;;;;;;12.52;7.50;;;9.10;98.10;;;;;;2137074;66;20282;-73
2022/04/19 06:47:41;;;;;;;13.77;7.72;;;9.20;97.90;;;;;;2128338;67;20387;-73
2022/04/19 06:50:26;;;;;;;12.88;7.88;;;9.30;97.70;;;;;;2159687;66;20234;-73
2022/04/19 06:53:10;;;;;;;12.35;7.10;;;9.40;97.60;;;;;;2144932;66;20312;-74
2022/04/19 06:55:54;;;;;;;14.60;7.15;;;9.50;97.40;;;;;;2141079;66;20419;-73
2022/04/19 06:58:36;;;;;;;10.18;6.97;;;9.60;97.30;;;;;;2152047;66;20190;-73
2022/04/19 07:01:20;;;;;;;11.20;7.00;;;9.60;97.20;;;;;;2131014;67;20773;-73
2022/04/19 07:04:06;;;;;;;13.27;7.35;;;9.80;97.10;;;;;;2124757;67;20851;-74
2022/04/19 07:06:49;;;;;;;12.45;6.82;;;9.90;97.00;;;;;;2126677;67;20223;-73
2022/04/19 07:09:32;;;;;;;11.63;7.97;;;10.00;96.80;;;;;;2126798;67;20208;-74
2022/04/19 07:12:19;;;;;;;9.13;6.97;;;10.20;96.70;;;;;;2149224;66;21108;-72
2022/04/19 07:15:05;;;;;;;10.52;7.22;;;10.20;96.60;;;;;;2131081;67;20258;-73
2022/04/19 07:17:46;;;;;;;7.90;6.80;;;10.40;96.40;;;;;;2124454;67;20372;-74
2022/04/19 07:26:44;;;;;;;7.45;6.43;;;10.60;95.60;;;;;;2125469;67;20669;-74
2022/04/19 07:29:40;;;;;;;7.32;5.45;;;10.70;95.30;;;;;;2127705;67;20192;-73
2022/04/19 07:32:25;;;;;;;11.57;6.38;;;10.80;95.00;;;;;;2135849;67;20379;-73
2022/04/19 07:35:09;;;;;;;8.60;5.60;;;10.90;94.90;;;;;;2122064;67;20374;-73
2022/04/19 07:37:51;;;;;;;10.63;5.93;;;11.00;94.80;;;;;;2115147;67;20243;-72
2022/04/19 07:40:35;;;;;;;8.70;5.70;;;11.10;94.60;;;;;;2128138;67;20313;-73
2022/04/19 07:43:16;;;;;;;7.40;5.57;;;11.20;94.10;;;;;;2142728;66;20688;-73
2022/04/19 07:45:59;;;;;;;6.95;5.07;;;11.30;93.60;;;;;;2152554;66;20271;-72
2022/04/19 07:48:44;;;;;;;8.77;4.80;;;11.40;93.00;;;;;;2171388;66;20679;-73
2022/04/19 07:51:26;;;;;;;5.50;4.55;;;11.40;92.60;;;;;;2171062;66;20718;-73
2022/04/19 07:54:10;;;;;;;6.68;4.88;;;11.50;92.00;;;;;;2176274;65;20267;-73
2022/04/19 07:56:52;;;;;;;8.15;4.88;;;11.50;91.60;;;;;;2163701;66;20652;-73
2022/04/19 07:59:33;;;;;;;6.93;5.07;;;11.60;91.40;;;;;;2171200;66;20750;-73
2022/04/19 08:02:19;;;;;;;10.02;5.43;;;11.70;91.20;;;;;;2156864;66;20181;-73
2022/04/19 08:05:01;;;;;;;8.38;5.05;;;11.80;90.60;;;;;;2163622;66;20331;-74
2022/04/19 08:07:44;;;;;;;7.03;4.50;;;11.90;90.20;;;;;;2148876;66;20248;-73
2022/04/19 08:10:26;;;;;;;8.20;5.57;;;12.00;90.00;;;;;;2156465;66;20201;-74
2022/04/19 08:13:10;;;;;;;5.15;4.18;;;12.00;89.50;;;;;;2141962;66;20382;-75
2022/04/19 08:15:52;;;;;;;8.00;3.80;;;12.10;87.40;;;;;;2141623;66;20174;-74
2022/04/19 08:18:34;;;;;;;5.32;3.30;;;12.20;83.90;;;;;;2143910;66;20187;-74
2022/04/19 08:21:17;;;;;;;5.43;3.70;;;12.30;81.90;;;;;;2135235;67;20179;-74
2022/04/19 08:23:59;;;;;;;5.05;3.28;;;12.30;80.60;;;;;;2134512;67;20703;-73
2022/04/19 08:26:44;;;;;;;3.97;3.58;;;12.40;79.70;;;;;;2120163;67;20181;-75
2022/04/19 08:29:27;;;;;;;3.63;3.22;;;12.40;79.10;;;;;;2127354;67;20200;-74
2022/04/19 08:32:09;;;;;;;5.30;2.53;;;12.50;77.10;;;;;;2120602;67;20776;-73
2022/04/19 08:34:51;;;;;;;4.47;2.45;;;12.60;74.70;;;;;;2120089;67;20326;-73
2022/04/19 08:37:37;;;;;;;3.35;2.25;;;12.70;73.70;;;;;;2105594;68;20269;-73
2022/04/19 08:40:19;;;;;;;4.07;2.17;;;12.80;72.50;;;;;;2112799;67;20726;-73
2022/04/19 08:43:01;;;;;;;3.22;1.77;;;12.80;71.60;;;;;;2113115;67;20234;-73
2022/04/19 08:45:46;;;;;;;4.80;2.17;;;12.90;69.60;;;;;;2119926;67;20247;-74
2022/04/19 08:48:31;;;;;;;4.18;2.38;;;12.90;67.90;;;;;;2113007;67;20185;-74
2022/04/19 08:51:20;;;;;;;;;;;13.00;67.40;;;;;;2120378;67;20185;-73
2022/04/19 09:00:09;;;;;;;3.20;1.65;;;13.30;65.50;;;;;;2120992;67;20416;-73
2022/04/19 09:02:53;;;;;;;5.40;2.03;;;13.40;65.20;;;;;;2129418;67;20175;-74
2022/04/19 09:05:37;;;;;;;3.35;1.75;;;13.50;64.90;;;;;;2140756;67;20344;-74
2022/04/19 09:08:21;;;;;;;3.40;1.70;;;13.50;64.30;;;;;;2133062;67;20309;-73
2022/04/19 09:11:05;;;;;;;2.55;1.27;;;13.60;64.20;;;;;;2140155;67;20297;-74
2022/04/19 09:14:07;;;;;;;3.33;2.00;;;13.70;63.80;;;;;;2153206;66;20338;-72
2022/04/19 09:17:10;;;;;;;7.05;1.80;;;13.70;62.80;;;;;;2154545;66;20236;-74
2022/04/19 09:20:11;;;;;;;4.95;1.90;;;13.80;63.00;;;;;;2147545;66;20166;-73
2022/04/19 09:23:05;;;;;;;4.63;1.80;;;13.80;62.50;;;;;;2130341;67;20172;-74
2022/04/19 09:25:51;;;;;;;3.30;1.73;;;13.90;62.80;;;;;;2129153;67;20637;-74
2022/04/19 09:28:34;;;;;;;3.10;1.70;;;14.00;62.70;;;;;;2119518;67;20300;-73
2022/04/19 09:31:18;;;;;;;3.85;2.00;;;14.00;62.70;;;;;;2126171;67;20387;-74
2022/04/19 09:34:00;;;;;;;3.22;1.92;;;14.10;62.60;;;;;;2137763;67;20203;-74
2022/04/19 09:36:44;;;;;;;4.30;1.90;;;14.20;62.70;;;;;;2134145;67;20367;-73
2022/04/19 09:39:29;;;;;;;3.53;2.00;;;14.30;62.70;;;;;;2132811;67;20168;-74
2022/04/19 09:42:14;;;;;;;3.83;1.98;;;14.40;62.60;;;;;;2140055;67;20756;-73
2022/04/19 09:44:57;;;;;;;4.30;1.90;;;14.50;62.40;;;;;;2136551;67;20249;-74
2022/04/19 09:47:51;;;;;;;3.20;2.30;;;14.60;62.50;;;;;;2138999;66;20344;-72
2022/04/19 09:50:47;;;;;;;4.03;2.00;;;14.70;62.30;;;;;;2135046;67;20287;-73
2022/04/19 09:53:41;;;;;;;2.75;2.10;;;14.80;61.70;;;;;;2144557;66;20362;-73
2022/04/19 09:56:23;;;;;;;4.60;1.85;;;14.90;61.80;;;;;;2147328;66;20310;-73
2022/04/19 09:59:06;;;;;;;4.07;1.77;;;15.00;61.40;;;;;;2139953;67;20163;-74
2022/04/19 10:10:56;;;;;;;2.95;2.00;;;15.40;59.80;;;;;;2126013;67;20183;-75
2022/04/19 10:13:41;;;;;;;5.50;1.80;;;15.40;59.10;;;;;;2143072;66;20190;-74
2022/04/19 10:16:29;;;;;;;2.33;2.13;;;15.40;59.00;;;;;;2136739;66;20333;-75
2022/04/19 10:19:16;;;;;;;2.90;1.67;;;15.40;58.90;;;;;;2138295;67;20192;-75
2022/04/19 10:22:07;;;;;;;4.60;2.25;;;15.50;59.40;;;;;;2130463;67;20270;-73
2022/04/19 10:24:52;;;;;;;3.50;2.00;;;15.50;59.10;;;;;;2132999;66;20349;-73
2022/04/19 10:27:36;;;;;;;3.85;2.20;;;15.60;59.00;;;;;;2134590;66;20367;-75
2022/04/19 10:30:29;;;;;;;3.42;2.33;;;15.70;59.00;;;;;;2139672;66;20328;-73
2022/04/19 10:33:49;;;;;;;5.18;1.80;;;15.80;58.50;;;;;;2142092;66;20201;-74
2022/04/19 10:36:38;;;;;;;3.13;2.05;;;15.90;58.30;;;;;;2128088;66;20274;-75
2022/04/19 10:39:24;;;;;;;3.20;1.90;;;16.00;58.40;;;;;;2142495;66;20194;-73
2022/04/19 10:42:24;;;;;;;3.28;2.05;;;16.10;58.20;;;;;;2140421;66;20233;-74
2022/04/19 10:45:14;;;;;;;4.47;1.98;;;16.30;58.40;;;;;;2134066;67;20263;-74
2022/04/19 10:47:58;;;;;;;3.03;2.33;;;16.70;58.30;;;;;;2137277;67;20196;-74
2022/04/19 10:51:43;;;;;;;1.88;1.70;;;17.40;58.00;;;;;;2111651;67;20326;-73
2022/04/19 10:55:04;;;;;;;4.10;1.95;;;18.30;56.70;;;;;;2112226;67;20697;-73
2022/04/19 10:58:20;;;;;;;4.35;2.28;;;18.90;56.60;;;;;;2123872;67;20177;-75
2022/04/19 11:01:09;;;;;;;3.72;2.35;;;19.50;54.50;;;;;;2124431;67;20188;-74
2022/04/19 11:03:56;;;;;;;3.70;2.40;;;19.90;54.20;;;;;;2108935;67;20379;-74
2022/04/19 11:06:43;;;;;;;3.35;2.33;;;20.20;52.90;;;;;;2120467;67;20863;-74
2022/04/19 11:09:29;;;;;;;3.67;2.03;;;20.70;52.20;;;;;;2116170;67;20314;-75
2022/04/19 11:12:15;;;;;;;2.85;2.63;;;21.30;51.20;;;;;;2117233;67;20209;-74
2022/04/19 11:15:38;;;;;;;3.25;2.50;;;21.70;50.10;;;;;;2122410;67;20271;-75
2022/04/19 11:18:30;;;;;;;2.30;2.10;;;22.20;49.40;;;;;;2110199;67;20742;-75
2022/04/19 11:21:13;;;;;;;3.33;2.70;;;22.70;48.40;;;;;;2102643;68;20248;-74
2022/04/19 11:23:55;;;;;;;2.35;1.80;;;23.10;46.80;;;;;;2111510;67;20816;-74
2022/04/19 11:26:44;;;;;;;3.70;1.98;;;23.50;46.30;;;;;;2117373;67;20330;-75
2022/04/19 11:29:51;;;;;;;2.13;1.90;;;24.10;45.40;;;;;;2101537;67;20190;-75
2022/04/19 11:32:40;;;;;;;3.40;1.90;;;24.90;44.00;;;;;;2113365;67;20384;-74
2022/04/19 11:35:22;;;;;;;3.22;2.05;;;25.20;42.50;;;;;;2123183;67;20270;-75
2022/04/19 11:38:10;;;;;;;3.42;2.22;;;25.60;41.70;;;;;;2126489;67;20208;-74
2022/04/19 11:46:55;;;;;;;4.25;2.20;;;27.10;39.40;;;;;;2139203;66;20305;-74
2022/04/19 11:49:39;;;;;;;2.10;1.83;;;27.70;38.70;;;;;;2129682;67;20371;-74
2022/04/19 11:52:26;;;;;;;2.33;2.13;;;28.20;38.20;;;;;;2139382;66;20291;-74
2022/04/19 11:55:15;;;;;;;2.60;2.22;;;28.70;37.50;;;;;;2134608;67;20336;-73
2022/04/19 11:58:26;;;;;;;3.30;3.00;;;29.00;36.90;;;;;;2142103;66;20762;-74
2022/04/19 12:01:14;;;;;;;2.55;2.30;;;29.60;36.80;;;;;;2135941;67;20395;-74
2022/04/19 12:04:11;;;;;;;4.47;2.35;;;29.80;35.90;;;;;;2126355;67;20853;-73
2022/04/19 12:07:03;;;;;;;4.90;3.08;;;30.30;35.50;;;;;;2115655;67;20355;-73
2022/04/19 12:09:46;;;;;;;3.20;2.85;;;30.80;34.80;;;;;;2119694;67;21351;-73
2022/04/19 12:12:31;;;;;;;2.90;2.60;;;30.90;34.50;;;;;;2122412;67;20326;-74
2022/04/19 12:15:33;;;;;;;3.25;2.40;;;31.10;34.40;;;;;;2113322;67;20232;-73
2022/04/19 12:18:30;;;;;;;2.95;2.20;;;30.90;34.00;;;;;;2112379;67;20658;-73
2022/04/19 12:21:12;;;;;;;3.15;1.98;;;30.50;33.70;;;;;;2113997;67;20412;-73
2022/04/19 12:23:54;;;;;;;2.13;1.92;;;30.10;34.10;;;;;;2101387;67;20238;-74
2022/04/19 12:26:37;;;;;;;2.97;1.80;;;30.30;34.70;;;;;;2093600;68;20212;-74
2022/04/19 12:29:22;;;;;;;3.05;2.60;;;30.80;34.20;;;;;;2093711;67;20333;-74
2022/04/19 12:32:06;;;;;;;3.90;2.67;;;31.30;33.50;;;;;;2091436;68;20584;-74
2022/04/19 12:34:50;;;;;;;3.45;2.17;;;31.40;33.30;;;;;;2093053;68;20183;-74
2022/04/19 12:37:32;;;;;;;3.65;2.58;;;31.70;33.40;;;;;;2104400;68;20332;-74
2022/04/19 12:40:14;;;;;;;2.53;2.33;;;32.10;33.10;;;;;;2115837;67;20233;-74
2022/04/19 12:43:00;;;;;;;4.25;2.40;;;32.60;33.50;;;;;;2109631;67;26095;-74
2022/04/19 12:45:42;;;;;;;2.45;2.25;;;33.20;32.60;;;;;;2124318;67;20190;-73
2022/04/19 12:48:24;;;;;;;3.33;2.72;;;33.50;32.10;;;;;;2116525;67;20196;-74
2022/04/19 12:51:06;;;;;;;3.08;2.53;;;33.70;31.60;;;;;;2124790;67;20326;-74
2022/04/19 12:54:04;;;;;;;2.95;2.70;;;33.90;31.40;;;;;;2125067;67;20180;-74
2022/04/19 12:57:05;;;;;;;2.80;2.60;;;34.10;31.70;;;;;;2118101;67;20184;-74
2022/04/19 12:59:49;;;;;;;3.63;2.28;;;34.50;31.40;;;;;;2127043;67;20304;-74
2022/04/19 13:02:32;;;;;;;2.75;2.25;;;34.80;31.00;;;;;;2131837;67;20240;-74
2022/04/19 13:05:14;;;;;;;3.22;2.40;;;35.30;30.30;;;;;;2126639;67;20837;-74
2022/04/19 13:13:59;;;;;;;3.45;2.38;;;35.50;29.60;;;;;;2142795;66;20193;-74
2022/04/19 13:16:43;;;;;;;3.55;2.50;;;35.70;29.40;;;;;;2147308;66;20294;-73
2022/04/19 13:19:26;;;;;;;2.83;2.50;;;35.90;29.50;;;;;;2145255;66;20342;-74
2022/04/19 13:22:12;;;;;;;4.18;2.70;;;36.20;29.40;;;;;;1899087;67;15158608;-73
2022/04/19 13:24:58;;;;;;;4.03;2.65;;;36.40;29.20;;;;;;2116820;67;20244;-75
2022/04/19 13:27:41;;;;;;;3.25;2.45;;;36.80;29.40;;;;;;2114250;67;20319;-73
2022/04/19 13:30:28;;;;;;;5.78;3.00;;;36.90;29.00;;;;;;2131449;67;20455;-75
2022/04/19 13:33:14;;;;;;;3.25;2.50;;;37.00;29.10;;;;;;2124826;67;20347;-74
2022/04/19 13:35:56;;;;;;;3.33;2.83;;;36.80;28.60;;;;;;2121548;67;20274;-74
2022/04/19 13:38:40;;;;;;;2.97;2.60;;;36.90;28.80;;;;;;2113051;67;20207;-73
2022/04/19 13:41:25;;;;;;;3.15;2.50;;;37.20;28.80;;;;;;2120721;67;20342;-74
2022/04/19 13:44:10;;;;;;;5.82;3.50;;;37.70;28.60;;;;;;2105775;67;20274;-74
2022/04/19 13:46:56;;;;;;;4.35;3.95;;;37.90;28.50;;;;;;2117804;67;20206;-76
2022/04/19 13:49:40;;;;;;;3.95;3.08;;;37.80;28.30;;;;;;2116863;67;20292;-75
2022/04/19 13:52:23;;;;;;;3.85;3.55;;;37.80;28.20;;;;;;2117695;67;20169;-74
2022/04/19 13:55:11;;;;;;;4.38;3.42;;;37.70;28.70;;;;;;2141974;66;20233;-75
2022/04/19 13:57:55;;;;;;;3.60;2.92;;;38.10;28.20;;;;;;2170011;65;20202;-74
2022/04/19 14:00:37;;;;;;;3.22;2.95;;;38.00;28.30;;;;;;2151751;66;20293;-74
2022/04/19 14:03:19;;;;;;;4.15;3.38;;;38.20;28.00;;;;;;2138575;67;20253;-75
2022/04/19 14:06:01;;;;;;;4.30;3.10;;;38.40;27.80;;;;;;2146559;66;20182;-75
2022/04/19 14:08:46;;;;;;;3.17;2.83;;;38.80;27.90;;;;;;2154047;66;20198;-73
2022/04/19 14:11:28;;;;;;;3.10;2.80;;;38.90;27.70;;;;;;2160517;66;20202;-74
2022/04/19 14:14:11;;;;;;;3.92;3.22;;;38.70;27.60;;;;;;2156510;66;21151;-73
2022/04/19 14:16:53;;;;;;;4.25;3.15;;;38.40;27.40;;;;;;2153303;66;20177;-74
2022/04/19 14:19:35;;;;;;;4.53;3.03;;;38.20;27.50;;;;;;2146484;66;20285;-74
2022/04/19 14:22:18;;;;;;;5.63;2.97;;;38.20;27.50;;;;;;2120886;67;20201;-74
2022/04/19 14:25:04;;;;;;;4.93;2.90;;;38.10;27.50;;;;;;2117473;67;20333;-75
2022/04/19 14:27:46;;;;;;;3.42;2.97;;;38.00;27.10;;;;;;2118225;67;20331;-74
2022/04/19 14:33:29;;;;;;;3.45;2.88;;;38.00;27.20;;;;;;2116710;67;20314;-75
2022/04/19 14:36:13;;;;;;;3.75;3.15;;;37.90;27.20;;;;;;2122153;67;20450;-75
2022/04/19 14:39:00;;;;;;;5.22;3.47;;;37.60;27.30;;;;;;2133158;67;20876;-74
2022/04/19 14:41:43;;;;;;;3.55;3.25;;;37.80;27.40;;;;;;2140179;66;20504;-76
2022/04/19 14:44:25;;;;;;;3.78;3.25;;;37.90;27.30;;;;;;2136753;66;20257;-73
2022/04/19 14:47:07;;;;;;;4.03;3.30;;;37.90;27.50;;;;;;2111977;67;20722;-74
2022/04/19 14:49:52;;;;;;;4.85;3.17;;;37.60;27.40;;;;;;2132804;67;20359;-74
2022/04/19 14:52:36;;;;;;;3.55;3.25;;;37.50;27.60;;;;;;2154229;66;20222;-74
2022/04/19 14:55:21;;;;;;;4.35;3.22;;;37.90;27.40;;;;;;2137456;67;20280;-74
2022/04/19 14:58:04;;;;;;;3.20;2.63;;;37.90;27.60;;;;;;2138684;66;20183;-74
2022/04/19 15:00:46;;;;;;;3.72;3.30;;;37.70;27.30;;;;;;2146824;66;20178;-74
2022/04/19 15:03:31;;;;;;;4.95;3.20;;;37.40;27.20;;;;;;2138385;66;20331;-74
2022/04/19 15:06:14;;;;;;;3.10;2.80;;;37.20;27.10;;;;;;2131925;67;20262;-76
2022/04/19 15:09:01;;;;;;;6.57;5.65;;;36.80;27.00;;;;;;2122662;67;20809;-74
2022/04/19 15:11:44;;;;;;;3.28;2.88;;;36.30;27.40;;;;;;2125079;67;20310;-74
2022/04/19 15:14:28;;;;;;;4.72;3.30;;;36.70;28.00;;;;;;2117744;67;20202;-75